x

Galveston,tx - 22 Nm East Of Galveston, Tx (42035) Wave Buoy

10:50pm - Thu 26th May 2016 All times are CDT. -5 hours from GMT.

  • Sig Wave height 4.9ft
  • Swell Direction
  • Peak Period 7s
  • Average Period 5s
  • Wind
    11mph, 16mph gusts
  • Sea Temp 80°f
  • Air Temp 81°f
  • Sea Pressure 1013.3mb
  • Galveston,tx -  22 Nm East Of Galveston, Tx
  • Galveston,tx -  22 Nm East Of Galveston, Tx

More Historic Weather Station data

Upgrade to MSW Pro to gain access to the past 30 days of data for over 8000 Wavebouys and Weather Stations around the globe.

Join Pro

Comparision Forecast

View Surf forecast
   
Thu 05/26 10:50pm 5ft 7s 5s 11 16 mph 1013.3mb 80f 81f
9:50pm 5ft 7s 5s 18 20 mph 1011.9mb 80f 81f
8:50pm 5ft 7s 5s 20 25 mph 1011.2mb 80f 81f
7:50pm 5.5ft 6s 5s 25 31 mph 1010.1mb 80f 81f
6:50pm 5ft 7s 5s 25 29 mph 1010.1mb 80f 81f
5:50pm 5ft 6s 5s 27 31 mph 1010.2mb 80f 80f
4:50pm 4.5ft 7s 5s 25 31 mph 1011.1mb 80f 80f
3:50pm 4.5ft 7s 5s 22 27 mph 1011.3mb 80f 80f
2:50pm 4.5ft 7s 5s 20 25 mph 1012.9mb 80f 81f
1:50pm 4.5ft 7s 5s 18 22 mph 1014.4mb 80f 81f
12:50pm 4.5ft 7s 5s 18 22 mph 1014.4mb 80f 80f
11:50am 4.5ft 7s 5s 18 20 mph 1015.2mb 80f 81f
10:50am 4.5ft 6s 5s 18 20 mph 1015.8mb 80f 81f
9:50am 4.5ft 6s 5s 18 22 mph 1015.5mb 80f 80f
8:50am 4ft 7s 5s 18 22 mph 1015.1mb 80f 80f
7:50am 4ft 7s 5s 18 20 mph 1015.1mb 80f 80f
6:50am 4ft 7s 5s 16 18 mph 1015.2mb 80f 80f
5:50am 3.5ft 6s 5s 18 22 mph 1014.6mb 80f 80f
4:50am 4.5ft 6s 5s 16 18 mph 1014.8mb 80f 80f
3:50am 4ft 6s 5s 16 18 mph 1015.3mb 81f 80f
2:50am 4.5ft 7s 5s 18 20 mph 1015.3mb 81f 80f
1:50am 4.5ft 7s 5s 20 25 mph 1015.3mb 80f 80f
12:50am 4.5ft 6s 5s 20 25 mph 1015.7mb 80f 80f
Wed 05/25 11:50pm 4ft 7s 5s 20 22 mph 1016.1mb 81f 80f
10:50pm 4ft 7s 5s 18 22 mph 1016.4mb 81f 80f
9:50pm 3.5ft 7s 5s 20 22 mph 1016mb 81f 80f
8:50pm 3.5ft 7s 5s 18 20 mph 1016.2mb 81f 80f
7:50pm 3.5ft 7s 5s 16 20 mph 1016.4mb 81f 80f
6:50pm 4ft 7s 5s 13 16 mph 1016.5mb 81f 81f
5:50pm 4ft 7s 5s 9 11 mph 1017.1mb 82f 81f
4:50pm 4ft 7s 5s 9
mph
1017mb 81f 81f
3:50pm 4ft 7s 5s 11 13 mph 1016.6mb 81f 81f
2:50pm 4ft 6s 5s 13 16 mph 1016.8mb 81f 81f
1:50pm 4ft 6s 5s 16 18 mph 1016.9mb 81f 81f
12:50pm 3.5ft 6s 5s 16 20 mph 1016.9mb 81f 80f
11:50am 3.5ft 6s 5s 16 20 mph 1017mb 80f 80f
10:50am 3.5ft 7s 5s 16 18 mph 1017.3mb 80f 80f
9:50am 3.5ft 6s 5s 13 16 mph 1017.5mb 80f 80f
8:50am 3.5ft 6s 5s 13 16 mph 1017.2mb 80f 80f
7:50am 3.5ft 6s 5s 13 16 mph 1016.7mb 80f 80f
6:50am 4ft 6s 5s 13 18 mph 1016mb 80f 80f
5:50am 3.5ft 6s 5s 13 16 mph 1015.3mb 80f 80f
4:50am 4ft 6s 4s 16 20 mph 1014.8mb 80f 80f
3:50am 3.5ft 5s 4s 18 20 mph 1014.7mb 80f 80f
2:50am 3.5ft 6s 4s 18 20 mph 1014.7mb 80f 80f
1:50am 3.5ft 5s 4s 16 18 mph 1015.4mb 80f 80f
12:50am 3.5ft 6s 4s 16 18 mph 1016mb 80f 80f
Tue 05/24 11:50pm 3.5ft 6s 4s 16 18 mph 1016.3mb 80f 80f
10:50pm 3.5ft 6s 4s 16 18 mph 1016.2mb 80f 80f
9:50pm 3.5ft 6s 4s 16 18 mph 1015.7mb 80f 80f
8:50pm 3.5ft 6s 4s 13 18 mph 1015.7mb 80f 80f
7:50pm 4ft 6s 5s 13 16 mph 1014.9mb 80f 80f
6:50pm 3.5ft 6s 4s 13 16 mph 1014.7mb 80f 80f
5:50pm 3.5ft 6s 4s 13 16 mph 1014.9mb 80f 80f
4:50pm 3.5ft 6s 4s 16 18 mph 1015mb 80f 80f
3:50pm 3.5ft 6s 4s 18 20 mph 1015.1mb 80f 80f
2:50pm 3ft 5s 4s 18 20 mph 1015.3mb 80f 80f
1:50pm 3ft 5s 4s 18 20 mph 1015.5mb 80f 80f
12:50pm 3ft 6s 4s 18 20 mph 1015.5mb 80f 80f
11:50am 3ft 5s 4s 18 20 mph 1015.5mb 79f 79f
10:50am 3ft 5s 4s 18 20 mph 1015.3mb 79f 79f
9:50am 3ft 5s 4s 18 20 mph 1014.4mb 79f 79f
8:50am 2.5ft 5s 4s 18 20 mph 1013.8mb 79f 79f
7:50am 2.5ft 5s 4s 16 18 mph 1013.5mb 79f 78f
6:50am 2.5ft 4s 4s 16 18 mph 1013.2mb 79f 78f
5:50am 2.5ft 4s 4s 16 18 mph 1012.9mb 79f 78f
4:50am 2.5ft 5s 4s 13 16 mph 1013.3mb 79f 78f
3:50am 3ft 5s 4s 16
mph
1013.3mb 79f 78f
2:50am 3ft 5s 4s 16 18 mph 1013.3mb 79f 78f
1:50am 3ft 7s 4s 16 18 mph 1013.3mb 79f 78f
12:50am 3ft 7s 4s 16 18 mph 1013.2mb 79f 78f
Mon 05/23 11:50pm 3ft 5s 4s 16 18 mph 1013mb 79f 78f
10:50pm 3ft 7s 4s 16 18 mph 1012.9mb 79f 78f
9:50pm 3ft 6s 5s 16 18 mph 1012.6mb 79f 78f
8:50pm 3.5ft 6s 5s 13 16 mph 1012.1mb 79f 78f
7:50pm 3.5ft 6s 4s 16
mph
1011.7mb 79f 78f
5:50pm 2.5ft 5s 4s 16 18 mph 1011.3mb 79f 78f
4:50pm 2.5ft 5s 4s 16 18 mph 1011.8mb 79f 78f
3:50pm 2.5ft 6s 4s 16 18 mph 1012.8mb 79f 78f
2:50pm 2.5ft 6s 4s 16 18 mph 1013.3mb 79f 78f
1:50pm 2.5ft 5s 4s 13 16 mph 1014mb 79f 78f
12:50pm 2.5ft 6s 4s 13 16 mph 1013.8mb 79f 78f
11:50am 2.5ft 4s 4s 11 13 mph 1013.8mb 78f 77f
10:50am 2.5ft 3s 4s 11 13 mph 1013.6mb 78f 77f
9:50am 2.5ft 3s 4s 16 18 mph 1013.4mb 78f 77f
8:50am 2.5ft 6s 4s 16 18 mph 1013mb 78f 77f
7:50am 2.5ft 6s 4s 18 20 mph 1012.3mb 78f 77f
6:50am 2.5ft 6s 4s 18 20 mph 1011.9mb 78f 76f
5:50am 2.5ft 7s  -  16 18 mph 1012.4mb 78f 76f